Latest Weather Observations for Kadina

IDS60801

Issued at 10:05 pm CDT Tuesday 21 October 2014 (issued every 30 minutes, with the page automatically refreshed every 10 minutes)

About weather observations | Map of weather stations | Latest weather observations for SA | Other Formats
Station Details ID: 022050 Name: KADINA AWS Lat: -33.97 Lon: 137.66 Height: 41.14 m
Data from the previous 72 hours. | See also: Recent months at Kadina
Date/Time
CDT
Temp
°C
App
Temp
°C
Dew
Point
Rel
Hum
%
Delta-T
°C
Wind Press
QNH
hPa
Press
MSL
hPa
Rain
since 9 am
mm
Dir
 
Spd
km/h
Gust
km/h
Spd
kts
Gust
kts
21/10:00pm 22.1 18.1 5.1 33 8.4 E 15 17 8 9 1016.6 - 0.0
21/09:30pm 22.6 18.5 4.6 31 8.9 E 15 15 8 8 1016.4 - 0.0
21/09:00pm 23.8 20.6 5.2 30 9.3 E 11 15 6 8 1016.3 1016.2 0.0
21/08:30pm 24.0 20.9 5.4 30 9.4 ESE 11 17 6 9 1015.9 - 0.0
21/08:00pm 26.8 23.7 5.7 26 10.9 SSW 11 11 6 6 1015.8 - 0.0
21/07:30pm 28.6 24.9 6.1 24 11.8 WSW 15 19 8 10 1015.9 - 0.0
21/07:00pm 30.8 26.8 0.2 14 14.8 NE 11 13 6 7 1015.2 - 0.0
21/06:30pm 33.5 28.9 -1.0 11 16.6 NNE 13 15 7 8 1015.1 - 0.0
21/06:00pm 35.2 29.5 -1.0 10 17.6 NNE 19 24 10 13 1015.2 1015.0 0.0
21/05:30pm 35.9 30.4 -1.9 9 18.2 N 17 26 9 14 1015.3 - 0.0
21/05:00pm 36.2 30.2 -1.7 9 18.4 N 20 28 11 15 1015.4 - 0.0
21/04:30pm 36.2 30.4 -1.7 9 18.4 N 19 26 10 14 1015.5 - 0.0
21/04:00pm 36.4 30.8 -0.1 10 18.2 N 19 26 10 14 1015.7 - 0.0
21/03:30pm 35.8 28.8 -0.5 10 17.9 N 26 33 14 18 1016.0 - 0.0
21/03:00pm 35.8 28.0 -0.5 10 17.9 N 30 37 16 20 1016.2 1016.1 0.0
21/02:30pm 36.2 28.9 -0.2 10 18.1 N 28 39 15 21 1016.7 - 0.0
21/02:00pm 36.3 29.3 -0.2 10 18.1 N 26 33 14 18 1017.0 - 0.0
21/01:30pm 35.3 28.8 0.4 11 17.4 N 24 32 13 17 1017.5 - 0.0
21/01:00pm 35.4 28.7 1.7 12 17.2 N 26 33 14 18 1017.9 - 0.0
21/12:30pm 33.6 26.9 1.4 13 16.1 N 26 35 14 19 1018.4 - 0.0
21/12:00pm 33.3 26.2 1.2 13 16.0 N 28 39 15 21 1018.6 1018.5 0.0
21/11:30am 36.2 28.1 1.1 11 17.8 N 33 44 18 24 1018.5 - 0.0
21/11:00am 35.1 27.6 1.5 12 17.0 N 30 39 16 21 1018.5 - 0.0
21/10:30am 34.5 26.4 1.0 12 16.8 NNE 33 44 18 24 1018.6 - 0.0
21/10:00am 33.0 25.5 0.9 13 15.9 NNE 30 43 16 23 1018.7 - 0.0
21/09:30am 31.1 23.3 1.4 15 14.7 NNE 32 46 17 25 1018.8 - 0.0
21/09:02am 30.5 23.5 1.9 16 14.1 NNE 28 46 15 25 1018.8 - 0.0
21/09:00am 30.5 23.9 1.9 16 14.1 NNE 26 39 14 21 1018.8 1018.7 0.0
21/08:30am 28.1 23.1 3.7 21 12.3 NNE 19 28 10 15 1018.7 - 0.0
21/08:00am 25.0 20.5 4.2 26 10.4 NE 17 22 9 12 1018.5 - 0.0
21/07:30am 22.6 18.9 4.6 31 8.9 ENE 13 17 7 9 1018.2 - 0.0
21/07:00am 20.7 16.2 4.3 34 7.9 ENE 17 20 9 11 1017.8 - 0.0
21/06:30am 20.2 15.3 3.9 34 7.8 ENE 19 20 10 11 1017.5 - 0.0
21/06:00am 19.5 15.0 4.4 37 7.2 ENE 17 20 9 11 1017.4 1017.3 0.0
21/05:30am 18.4 14.0 4.6 40 6.6 ENE 17 19 9 10 1017.2 - 0.0
21/05:00am 18.5 14.1 4.7 40 6.6 ENE 17 19 9 10 1017.3 - 0.0
21/04:30am 19.8 15.3 4.3 36 7.5 ENE 17 19 9 10 1017.2 - 0.0
21/04:00am 21.6 16.7 4.2 32 8.5 ENE 19 24 10 13 1017.3 - 0.0
21/03:30am 23.1 17.7 4.6 30 9.2 ENE 22 32 12 17 1017.4 - 0.0
21/03:00am 23.5 18.1 4.5 29 9.4 ENE 22 33 12 18 1017.5 1017.4 0.0
21/02:30am 24.0 18.3 4.9 29 9.6 ENE 24 33 13 18 1017.8 - 0.0
21/02:00am 23.1 18.4 5.1 31 9.0 ENE 19 22 10 12 1018.0 - 0.0
21/01:30am 22.4 18.1 5.4 33 8.5 E 17 20 9 11 1018.3 - 0.0
21/01:00am 23.0 18.2 5.4 32 8.8 E 20 30 11 16 1018.6 - 0.0
21/12:30am 22.8 18.0 5.7 33 8.6 E 20 26 11 14 1019.0 - 0.0
21/12:00am 23.2 18.4 5.6 32 8.9 E 20 26 11 14 1019.3 1019.2 0.0
 
Date/Time
CDT
Temp
°C
App
Temp
°C
Dew
Point
Rel
Hum
%
Delta-T
°C
Wind Press
QNH
hPa
Press
MSL
hPa
Rain
since 9 am
mm
Dir
 
Spd
km/h
Gust
km/h
Spd
kts
Gust
kts
20/11:30pm 22.0 17.4 5.8 35 8.1 E 19 20 10 11 1019.5 - 0.0
20/11:00pm 21.0 17.1 6.9 40 7.2 ESE 17 20 9 11 1019.7 - 0.0
20/10:30pm 20.8 17.1 7.8 43 6.7 ESE 17 19 9 10 1019.7 - 0.0
20/10:00pm 21.9 18.0 8.8 43 7.0 ESE 19 22 10 12 1019.8 - 0.0
20/09:30pm 22.0 18.1 9.5 45 6.7 ESE 20 24 11 13 1019.6 - 0.0
20/09:00pm 21.6 17.9 9.5 46 6.5 ESE 19 22 10 12 1019.5 1019.4 0.0
20/08:30pm 22.7 18.3 8.8 41 7.4 SE 22 26 12 14 1019.1 - 0.0
20/08:00pm 24.7 20.0 7.8 34 9.0 SE 22 30 12 16 1018.8 - 0.0
20/07:30pm 26.7 22.4 7.2 29 10.4 SE 19 22 10 12 1018.6 - 0.0
20/07:00pm 30.1 25.6 6.1 22 12.7 SE 19 26 10 14 1018.4 - 0.0
20/06:30pm 32.3 27.4 5.0 18 14.4 SSE 20 24 11 13 1018.2 - 0.0
20/06:00pm 33.5 30.9 4.2 16 15.3 S 7 15 4 8 1018.1 1018.0 0.0
20/05:30pm 34.6 30.5 -2.9 9 17.6 W 9 15 5 8 1018.1 - 0.0
20/05:00pm 34.2 28.9 -3.2 9 17.5 NW 15 19 8 10 1018.1 - 0.0
20/04:30pm 34.0 28.5 -1.9 10 17.1 NW 17 22 9 12 1018.1 - 0.0
20/04:00pm 34.3 28.3 -3.1 9 17.5 NW 19 24 10 13 1018.4 - 0.0
20/03:30pm 34.5 28.7 -0.2 11 17.0 NW 20 24 11 13 1018.7 - 0.0
20/03:00pm 34.6 28.8 -1.4 10 17.3 NNW 19 26 10 14 1018.9 1018.8 0.0
20/02:30pm 34.2 28.5 -0.4 11 16.9 NNW 19 26 10 14 1019.4 - 0.0
20/02:00pm 34.3 29.4 1.9 13 16.5 NW 17 26 9 14 1019.9 - 0.0
20/01:30pm 33.2 28.3 4.0 16 15.2 NW 19 26 10 14 1020.4 - 0.0
20/01:00pm 33.5 29.4 4.2 16 15.4 NNW 15 24 8 13 1020.6 - 0.0
20/12:30pm 34.8 30.3 2.3 13 16.7 NE 15 22 8 12 1021.0 - 0.0
20/12:00pm 33.2 27.9 2.1 14 15.7 NE 19 28 10 15 1021.4 1021.3 0.0
20/11:30am 31.8 27.2 3.8 17 14.4 E 17 24 9 13 1021.8 - 0.0
20/11:00am 30.5 26.0 4.3 19 13.5 ENE 17 24 9 13 1022.3 - 0.0
20/10:30am 28.2 24.0 7.4 27 11.2 E 19 28 10 15 1022.4 - 0.0
20/10:00am 25.9 21.7 7.5 31 9.8 E 19 26 10 14 1022.6 - 0.0
20/09:30am 23.0 19.3 9.4 42 7.4 ESE 19 26 10 14 1022.7 - 0.0
20/09:00am 20.5 16.8 10.3 52 5.5 ESE 20 26 11 14 1022.7 1022.6 0.0
20/08:30am 18.1 14.3 11.0 63 3.8 ESE 22 30 12 16 1022.8 - 0.0
20/08:00am 15.9 12.2 11.5 75 2.4 ESE 22 30 12 16 1022.7 - 0.0
20/07:30am 13.8 10.5 11.0 83 1.5 ESE 19 28 10 15 1022.4 - 0.0
20/07:00am 12.6 9.8 10.1 85 1.3 ESE 15 19 8 10 1022.3 - 0.0
20/06:30am 12.2 8.6 9.8 85 1.2 ESE 19 24 10 13 1021.9 - 0.0
20/06:00am 12.3 8.4 9.3 82 1.5 E 20 24 11 13 1021.5 1021.4 0.0
20/05:30am 12.0 8.2 9.0 82 1.5 E 19 20 10 11 1021.4 - 0.0
20/05:00am 11.2 7.6 8.2 82 1.5 ESE 17 20 9 11 1021.3 - 0.0
20/04:30am 11.5 7.7 7.4 76 2.0 ESE 17 19 9 10 1021.3 - 0.0
20/04:00am 13.4 9.5 8.5 72 2.5 ESE 19 20 10 11 1021.3 - 0.0
20/03:30am 12.5 8.8 8.0 74 2.2 E 17 19 9 10 1021.4 - 0.0
20/03:00am 13.7 10.1 8.5 71 2.6 E 17 20 9 11 1021.2 1021.1 0.0
20/02:30am 14.9 10.6 9.3 69 2.9 ESE 22 28 12 15 1020.9 - 0.0
20/02:00am 15.2 10.7 10.0 71 2.7 ESE 24 32 13 17 1021.2 - 0.0
20/01:30am 15.7 11.4 10.7 72 2.7 ESE 24 30 13 16 1021.5 - 0.0
20/01:00am 16.3 11.6 10.6 69 3.0 ESE 26 35 14 19 1021.4 - 0.0
20/12:30am 16.4 11.8 11.1 71 2.8 ESE 26 33 14 18 1021.4 - 0.0
20/12:00am 16.3 11.6 12.1 76 2.3 ESE 28 35 15 19 1021.3 1021.2 0.0
 
Date/Time
CDT
Temp
°C
App
Temp
°C
Dew
Point
Rel
Hum
%
Delta-T
°C
Wind Press
QNH
hPa
Press
MSL
hPa
Rain
since 9 am
mm
Dir
 
Spd
km/h
Gust
km/h
Spd
kts
Gust
kts
19/11:30pm 16.5 11.2 11.4 72 2.8 ESE 30 39 16 21 1021.3 - 0.0
19/11:00pm 17.5 12.2 9.7 60 4.1 SE 28 39 15 21 1021.2 - 0.0
19/10:30pm 17.7 12.5 8.8 56 4.6 ESE 26 35 14 19 1021.1 - 0.0
19/10:00pm 17.6 12.3 9.8 60 4.1 SE 28 37 15 20 1021.1 - 0.0
19/09:30pm 17.5 12.4 10.6 64 3.7 SE 28 39 15 21 1021.1 - 0.0
19/09:00pm 17.7 11.9 10.8 64 3.7 SE 32 41 17 22 1021.0 1020.9 0.0
19/08:30pm 18.1 12.6 10.7 62 4.0 SE 30 41 16 22 1021.0 - 0.0
19/08:00pm 18.2 13.1 10.6 61 4.1 SE 28 39 15 21 1020.7 - 0.0
19/07:30pm 19.1 14.5 10.9 59 4.5 SE 26 39 14 21 1020.5 - 0.0
19/07:00pm 21.4 16.9 11.4 53 5.6 SE 26 41 14 22 1020.2 - 0.0
19/06:30pm 23.6 19.1 12.6 50 6.3 SE 28 37 15 20 1019.8 - 0.0
19/06:00pm 25.5 20.7 11.7 42 7.8 SE 28 37 15 20 1019.5 1019.4 0.0
19/05:30pm 29.2 23.7 7.7 26 11.7 SSE 26 35 14 19 1019.3 - 0.0
19/05:00pm 32.8 28.5 -1.5 11 16.3 W 11 19 6 10 1018.6 - 0.0
19/04:30pm 32.7 27.6 -1.6 11 16.3 W 15 20 8 11 1018.6 - 0.0
19/04:00pm 33.8 30.0 -3.5 9 17.3 NNE 7 17 4 9 1018.7 - 0.0
19/03:30pm 33.3 28.0 -3.8 9 17.0 NNW 15 22 8 12 1018.8 - 0.0
19/03:00pm 33.5 28.2 -3.7 9 17.1 N 15 24 8 13 1018.9 1018.8 0.0
19/02:30pm 33.1 27.4 -4.0 9 17.0 N 17 24 9 13 1019.2 - 0.0
19/02:00pm 32.9 26.9 -2.7 10 16.6 N 19 26 10 14 1019.4 - 0.0
19/01:30pm 32.7 26.7 -2.9 10 16.5 N 19 28 10 15 1019.6 - 0.0
19/01:00pm 32.5 26.3 -3.0 10 16.4 N 20 32 11 17 1019.9 - 0.0
19/12:30pm 32.5 25.6 -3.0 10 16.4 N 24 33 13 18 1020.0 - 0.0
19/12:00pm 31.3 24.4 -2.6 11 15.6 N 24 32 13 17 1020.3 1020.2 0.0
19/11:30am 30.8 23.6 -1.9 12 15.2 N 26 35 14 19 1020.4 - 0.0
19/11:00am 29.5 21.9 -1.8 13 14.5 N 28 35 15 19 1020.5 - 0.0
19/10:30am 29.3 21.7 -1.9 13 14.4 N 28 37 15 20 1020.5 - 0.0
19/10:00am 26.9 19.3 -1.9 15 13.0 N 28 35 15 19 1020.5 - 0.0
19/09:30am 26.4 19.4 -0.6 17 12.4 N 26 32 14 17 1020.2 - 0.0
19/09:00am 25.6 19.2 1.0 20 11.6 N 24 30 13 16 1020.1 1020.0 0.0
19/08:30am 22.8 17.7 3.9 29 9.2 N 20 28 11 15 1020.1 - 0.0
19/08:00am 20.1 16.0 4.2 35 7.7 NNE 15 19 8 10 1020.1 - 0.0
19/07:30am 15.9 12.1 3.7 44 5.6 NNE 13 15 7 8 1019.7 - 0.0
19/07:00am 13.7 9.5 3.8 51 4.5 NNE 15 17 8 9 1019.2 - 0.0
19/06:30am 15.3 11.5 4.1 47 5.2 NNE 13 15 7 8 1018.9 - 0.0
19/06:00am 15.1 10.8 3.3 45 5.3 NNE 15 17 8 9 1018.1 1018.0 0.0
19/05:30am 15.2 10.9 3.0 44 5.5 NNE 15 17 8 9 1017.8 - 0.0
19/05:00am 16.8 12.5 3.1 40 6.3 NNE 15 19 8 10 1017.6 - 0.0
19/04:30am 16.7 11.8 2.3 38 6.5 NNE 17 20 9 11 1017.7 - 0.0
19/04:00am 16.9 11.5 1.4 35 6.9 NNE 19 20 10 11 1017.9 - 0.0
19/03:30am 17.4 11.9 0.6 32 7.4 NNE 19 20 10 11 1017.9 - 0.0
19/03:00am 17.1 11.9 -0.1 31 7.4 NNE 17 20 9 11 1018.0 1017.9 0.0
19/02:30am 16.7 11.0 -0.9 30 7.4 NE 19 20 10 11 1018.2 - 0.0
19/02:00am 17.8 12.1 -0.9 28 8.0 NNE 19 22 10 12 1018.5 - 0.0
19/01:30am 16.5 10.8 -0.7 31 7.3 NE 19 20 10 11 1018.7 - 0.0
19/01:00am 17.6 12.3 -0.6 29 7.8 NE 17 19 9 10 1018.8 - 0.0
19/12:30am 17.6 13.2 4.5 42 6.2 NNE 17 22 9 12 1018.9 - 0.0
19/12:00am 14.2 9.3 1.8 43 5.4 NE 17 26 9 14 1019.1 1019.0 0.0
 
Date/Time
CDT
Temp
°C
App
Temp
°C
Dew
Point
Rel
Hum
%
Delta-T
°C
Wind Press
QNH
hPa
Press
MSL
hPa
Rain
since 9 am
mm
Dir
 
Spd
km/h
Gust
km/h
Spd
kts
Gust
kts
18/11:30pm 13.2 8.9 1.2 44 5.1 NNE 13 15 7 8 1019.2 - 0.0
18/11:00pm 13.6 9.7 1.3 43 5.3 ENE 11 11 6 6 1019.4 - 0.0
18/10:30pm 13.7 9.4 1.0 42 5.4 E 13 15 7 8 1019.4 - 0.0

Other Formats:

Comma delimited format used in spreadsheet applications
http://www.bom.gov.au/fwo/IDS60801/IDS60801.94685.axf

JavaScript Object Notation format (JSON) in row-major order
http://www.bom.gov.au/fwo/IDS60801/IDS60801.94685.json